Flight Track Log - Related Links

Times and Time Zones

All times are in EST time to prevent confusion due to time zone crossing. See the N28KP flight status page for this flight to view local times or setup timezone preferences in your user account.

Time Position Orientation Groundspeed Altitude Reporting Facility
EST Latitude Longitude Course Direction KTS MPH feet Rate Location/Type
Wed 04:28:36 PM 47.6897 -104.3714 260° West 143 165 8,200  Level Salt Lake Center
Wed 04:29:37 PM 47.6825 -104.4336 260° West 149 171 9,900 1,805 Climbing Salt Lake Center
Wed 04:30:39 PM 47.6744 -104.5103 261° West 153 176 11,900 1,707 Climbing Salt Lake Center
Wed 04:31:40 PM 47.6647 -104.5742 257° West 156 180 13,400 1,268 Climbing Salt Lake Center
Wed 04:32:42 PM 47.6558 -104.6392 259° West 159 183 14,500 1,210 Climbing Salt Lake Center
Wed 04:33:44 PM 47.6489 -104.7058 261° West 162 186 15,900 732 Climbing Salt Lake Center
Wed 04:34:45 PM 47.6414 -104.7858 262° West 178 205 16,000 49 Climbing Salt Lake Center
Wed 04:35:47 PM 47.6306 -104.8758 260° West 201 231 16,000  Level Salt Lake Center
Wed 04:36:49 PM 47.6214 -104.9686 262° West 216 249 16,000  Level Salt Lake Center
Wed 04:37:50 PM 47.6133 -105.0761 264° West 220 253 16,000  Level Salt Lake Center
Wed 04:38:52 PM 47.6067 -105.1675 264° West 222 255 16,000  Level Salt Lake Center
Wed 04:39:54 PM 47.5967 -105.2594 261° West 224 258 16,000  Level Salt Lake Center
Wed 04:40:55 PM 47.5836 -105.3469 258° West 222 255 16,000  Level Salt Lake Center
Wed 04:41:57 PM 47.5722 -105.4381 260° West 223 257 16,000  Level Salt Lake Center
Wed 04:42:59 PM 47.5617 -105.5261 260° West 221 254 16,000  Level Salt Lake Center
Wed 04:44:00 PM 47.5511 -105.6172 260° West 223 257 16,000  Level Salt Lake Center
Wed 04:45:02 PM 47.5367 -105.7267 259° West 225 259 16,000  Level Salt Lake Center
Wed 04:46:04 PM 47.5247 -105.8172 259° West 225 259 16,000  Level Salt Lake Center
Wed 04:47:06 PM 47.5122 -105.9078 258° West 225 259 16,000  Level Salt Lake Center
Wed 04:48:07 PM 47.5008 -105.9986 260° West 225 259 16,000  Level Salt Lake Center
Wed 04:49:09 PM 47.4889 -106.0872 259° West 224 258 16,000  Level Salt Lake Center
Wed 04:50:11 PM 47.4794 -106.1767 261° West 222 255 16,000  Level Salt Lake Center
Wed 04:51:13 PM 47.4678 -106.2675 259° West 223 257 16,000  Level Salt Lake Center
Wed 04:52:14 PM 47.4550 -106.3756 260° West 224 258 16,000  Level Salt Lake Center
Wed 04:53:16 PM 47.4456 -106.4644 261° West 221 254 16,000  Level Salt Lake Center
Wed 04:54:18 PM 47.4347 -106.5553 260° West 223 257 16,000  Level Salt Lake Center
Wed 04:55:19 PM 47.4219 -106.6458 258° West 224 258 16,000  Level Salt Lake Center
Wed 04:56:21 PM 47.4097 -106.7361 259° West 225 259 16,000  Level Salt Lake Center
Wed 04:57:23 PM 47.3964 -106.8261 258° West 225 259 16,000  Level Salt Lake Center
Wed 04:58:25 PM 47.3839 -106.9164 258° West 225 259 16,000  Level Salt Lake Center
Wed 04:59:26 PM 47.3686 -107.0281 259° West 229 264 16,000  Level Salt Lake Center
Wed 05:00:28 PM 47.3569 -107.1181 259° West 228 262 16,000  Level Salt Lake Center
Wed 05:01:30 PM 47.3444 -107.2111 259° West 229 264 16,000  Level Salt Lake Center
Wed 05:02:32 PM 47.3322 -107.3047 259° West 231 266 16,000  Level Salt Lake Center
Wed 05:03:34 PM 47.3172 -107.4103 258° West 231 266 16,000  Level Salt Lake Center
Wed 05:05:00 PM 47.3003 -107.5371 259° West  Level FlightAware Approximate
Wed 05:07:04 PM 47.2822 -107.7258 259° West 227 261 16,000  Level Salt Lake Center
Wed 05:08:05 PM 47.2689 -107.8194 258° West 230 265 15,900 -49 Descending Salt Lake Center
Wed 05:09:07 PM 47.2558 -107.9097 258° West 230 265 15,900  Level Salt Lake Center
Wed 05:10:09 PM 47.2428 -108.0006 258° West 229 264 15,900  Level Salt Lake Center
Wed 05:11:11 PM 47.2308 -108.0911 259° West 229 264 15,900  Level Salt Lake Center
Wed 05:12:00 PM 47.2159 -108.1553 259° West  Level FlightAware Approximate
Wed 05:12:13 PM 47.2164 -108.1978 259° West 226 260 15,900  Level Salt Lake Center
Wed 05:13:15 PM 47.2039 -108.2894 259° West 226 260 15,900  Level Salt Lake Center
Wed 05:14:16 PM 47.1897 -108.3806 257° West 227 261 15,900  Level Salt Lake Center
Wed 05:15:18 PM 47.1772 -108.4736 259° West 229 264 15,900  Level Salt Lake Center
Wed 05:16:20 PM 47.1653 -108.5656 259° West 230 265 15,900  Level Salt Lake Center
Wed 05:17:22 PM 47.1528 -108.6544 258° West 228 262 15,900  Level Salt Lake Center
Wed 05:18:24 PM 47.1372 -108.7403 255° West 226 260 15,900  Level Salt Lake Center
Wed 05:19:26 PM 47.1156 -108.8447 253° West 224 258 15,900  Level Salt Lake Center
Wed 05:20:28 PM 47.0956 -108.9342 252° West 225 259 15,900  Level Salt Lake Center
Wed 05:21:30 PM 47.0750 -109.0242 251° West 228 262 15,900  Level Salt Lake Center
Wed 05:22:32 PM 47.0544 -109.1153 252° West 231 266 15,900  Level Salt Lake Center
Wed 05:23:34 PM 47.0347 -109.2069 253° West 233 268 15,900  Level Salt Lake Center
Wed 05:24:36 PM 47.0133 -109.2947 250° West 233 268 15,900  Level Salt Lake Center
Wed 05:25:38 PM 46.9889 -109.3989 251° West 231 266 15,900  Level Salt Lake Center
Wed 05:26:39 PM 46.9706 -109.4761 251° West 226 260 15,900  Level Salt Lake Center
Wed 05:27:41 PM 46.9519 -109.5600 252° West 221 254 15,900  Level Salt Lake Center
Wed 05:28:43 PM 46.9344 -109.6461 253° West 221 254 15,900 48 Level Salt Lake Center
Wed 05:29:45 PM 46.9117 -109.7492 252° West 222 255 16,000 48 Climbing Salt Lake Center
Wed 05:30:47 PM 46.8922 -109.8364 252° West 223 257 16,000 -48 Level Salt Lake Center
Wed 05:31:49 PM 46.8731 -109.9222 252° West 223 257 15,900 -48 Descending Salt Lake Center
Wed 05:32:51 PM 46.8564 -110.0117 255° West 218 251 15,900  Level Salt Lake Center
Wed 05:33:53 PM 46.8400 -110.0903 253° West 218 251 15,900  Level Salt Lake Center
Wed 05:34:55 PM 46.8214 -110.1736 252° West 217 250 15,900 48 Level Salt Lake Center
Wed 05:35:57 PM 46.7978 -110.2758 251° West 219 252 16,000 48 Climbing Salt Lake Center
Wed 05:37:00 PM 46.7767 -110.3583 250° West 219 252 16,000  Level Salt Lake Center
Wed 05:38:02 PM 46.7550 -110.4419 249° West 220 253 16,000 -145 Level Salt Lake Center
Wed 05:39:04 PM 46.7344 -110.5278 251° West 221 254 15,700 -435 Descending Salt Lake Center
Wed 05:40:06 PM 46.7150 -110.6172 252° West 225 259 15,100 -629 Descending Salt Lake Center
Wed 05:41:08 PM 46.6933 -110.7075 251° West 229 264 14,400 -532 Descending Salt Lake Center
Wed 05:42:10 PM 46.6719 -110.8128 254° West 230 265 14,000 -194 Descending Salt Lake Center
Wed 05:43:12 PM 46.6542 -110.8944 252° West 224 258 14,000 97 Level Salt Lake Center
Wed 05:44:14 PM 46.6350 -110.9728 250° West 217 250 14,200 194 Climbing Salt Lake Center
Wed 05:46:00 PM 46.5884 -111.1175 245° Southwest  Level FlightAware Approximate
Wed 05:53:00 PM 46.5587 -111.7272 282° West  Level FlightAware Approximate
Wed 05:54:00 PM 46.5714 -111.8157 282° West  Level FlightAware Approximate
Wed 05:55:00 PM 46.5846 -111.9039 296° West  Level FlightAware Approximate
Wed 05:56:00 PM 46.6000 -111.9667 270° West  Level FlightAware Approximate
Wed 05:57:00 PM 46.6068 -111.9827 270° West  Level Estimated
Wed 05:58:00 PM 46.6068 -111.9827 270° West  Level Estimated
Wed 05:59:00 PM 46.6068 -111.9827 270° West  Level Estimated
Wed 06:00:00 PM 46.6068 -111.9827 270° West  Level Estimated
Wed 06:01:00 PM 46.6068 -111.9827 270° West  Level Estimated

Login

Don't have an account? Register now (free) for customized features, flight alerts, and more!